Grindstone Creek Rancheria, California
Current Conditions -  °F | °C
As of 8:47 AM on Thursday 23 Oct 2014 (Local Time) from KCIC Reporting Station
Light Rain Light Rain  
Wind Chill: 59°   Ceiling: 7000
Heat Index: 59°   Visibility: 25mi
Dew Point: 50°   Wind: 7mph
Humidity: 72%   Direction: 90°E
Pressure: 30.05"   Gusts: NA
Location:  39.5562°N, 122.604°W
Report Text: KCIC 231547Z 09006KT 25SM -RA FEW050 BKN070 OVC100 15/10 A3005
Loading
Personal Weather Stations






























Interactive Weather Map New forecast layout! Learn more

10-Day Weather Forecast

Advertisements
Track Severe Weather on mobile